Huvudsida
METAR-TAF:

METAR-TAF

Flygplatser :

Riyadh, Saudiarabien

latitud: 24-56N, longitud: 046-43E, höjd: 614 m

Aktuellt väderrapport

Denna rapport gjordes för 1 timme och 13 minuter sedan, klockan 04:00 UTC
Vind 6 kt från nord/nordväst
Temperatur 12°C
Fuktighet 71%
Tryck 1020 hPa
Sikt: 9000 m
Spridda moln på en höjd av 4000 ft

METAR: OERK 200400Z 33006KT 9000 SCT040 12/07 Q1020 NOSIG

Tid: 08:13 (05:13 UTC)

Väderprognos

Denna rapport gjordes för 6 timmar och 13 minuter sedan, klockan 23:00 UTC
Prognos gäller från 20 kl. 00 UTC till 21 kl. 06 UTC
Vind 6 kt från nord i byarna ända upp till 16 kt
Sikt: 6000 m
Spridda moln på en höjd av 4000 ft
Spridda moln på en höjd av 10000 ft
Temporärt
från 20 kl. 00 UTC till 20 kl. 06 UTC
Sikt: 2500 m
Få moln på en höjd av 3500 ft, Cumulonimbus.
Brutna moln på en höjd av 4000 ft
fuktdis, regn

TAF: OERK 192300Z 2000/2106 36006G16KT 6000 SCT040 SCT100 TEMPO 2000/2006 2500 BR RA FEW035CB BKN040

Aktuella väderrapporter och prognoser från 4000 flygplatser (METAR- och TAF-rapporter).

De tillgängliga stationerna syns som gula och röda prickar på kartan.

För musen över prickarna för att se namnen på stationerna.

Klicka sedan för att få väderrapporter och prognoser.

För att ändra kartan: Klicka på de gröna knapparna med ett svart kors på för att zooma in; den gröna knappen med ett streck på för att zooma ut; eller på de gröna pilarna för angränsande kartor.


METAR-TAF: